Terminal Aerodrome Forecast
Issued by NWS

Home | Current Version | Previous Version | Graphics & Text | Print | Product List | Glossary On
Versions: 1 2 3 4 5 6 7 8 9 10 11 12 13
054
FTUS43 KMPX 060540
TAFAXN
TAF
KAXN 060540Z 0606/0706 23007KT P6SM SKC
     FM061800 28014G21KT P6SM FEW250
     FM062300 33016G24KT P6SM SCT250
     FM070300 35012KT P6SM BKN100=

USA.gov is the U.S. government's official web portal to all federal, state and local government web resources and services.